SEQMSKMR

Guest
Details From SEQM - Quito - Mariscal Sucre Intl
To SKMR - LOS GARZONES
Flight Number -
Tags generated
Created
Modified
Stats Distance 570 nm / 1,056 km
Max Altitude 35,000 ft / 10,668 m
Waypoints 6
Social Downloads 0
Likes 0
Share VATSIM

Download

Looking for another format? Having issues loading an existing format? Contact us
Advertisement - Login to hide

Notes

Basic altitude profile: - Ascent Rate: 1000ft/min - Ascent Speed: 250kts - Cruise Altitude: 250ft - Cruise Speed: 250kts - Descent Rate: 1500ft/min - Descent Speed: 250kts Options: - Use NATs: yes - Use PACOTS: yes - Use low airways: yes - Use high airways: yes

Route

SEQM BOKAN UQ102 LCE W5 BOKUS SKMR

ID Type Via Altitude Latitude Longitude Leg Dist Tot Dist Heading (true) Name
O SEQM APT - 0 ft / 0 m -0.12409˚ -78.35438˚ - 0 nm - Quito - Mariscal Sucre Intl
BOKAN FIX - 21,400 ft / 6,523 m 0.80833˚ -77.88167˚ 62 nm 62 nm 27° / 27° -
ASODI FIX UQ102 (AWY-HI) 35,000 ft / 10,668 m 5.71306˚ -77.07250˚ 298 nm 361 nm 9° / 9° -
LCE VOR UQ102 (AWY-HI) 23,500 ft / 7,163 m 7.81806˚ -76.72194˚ 128 nm 489 nm 9° / 9° LOS CEDROS VOR-DME
BOKUS FIX W5 (AWY-LO) 9,600 ft / 2,926 m 8.19750˚ -76.37861˚ 30 nm 520 nm 42° / 42° -
O SKMR APT - 0 ft / 0 m 8.82374˚ -75.82583˚ 49 nm 569 nm 41° / 41° LOS GARZONES

Altitude Profile

Advertisement - Login to hide

Weather


0- 5 10 15 20 25 30 35+ Temperature / ° C

Clouds and Precipitation
Forecast for 2017-12-17 18:00 UTC. Updated 27 minutes ago

Ground ~20,000 ft ~40,000 ft Winds

SEQM

Details ICAO SEQM
Name Quito - Mariscal Sucre Intl
Region Equador
Timezone America/Guayaquil (UTC-5.0)
Stats Elevation 7,841 ft / 2,390 m (AMSL)
Location -0.124089° -78.354381°
Runways 1
Magnetic Variation 3.595° W

METAR

SEQM 171700Z 04004KT 9999 SCT040 24/06 Q1023 NOSIG RMK A3020

Decode

TAF

Not found

Departure Runways

ID Width Length Bearing (true) Bearing (mag) Surface Threshold Offset Overrun Length
18 171 ft / 52 m 13,524 ft / 4,122 m 177.61° 181.21° Asphalt 0 ft / 0 m 177 ft / 54 m
36 171 ft / 52 m 13,524 ft / 4,122 m 357.61° 1.21° Asphalt 0 ft / 0 m 184 ft / 56 m

SKMR

Details ICAO SKMR (MTR)
Name LOS GARZONES
Region Colombia
Timezone America/Bogota (UTC-5.0)
Stats Elevation 36 ft / 11 m (AMSL)
Location 8.823745° -75.825832°
Runways 1
Magnetic Variation 6.768° W

METAR

SKMR 171700Z 09008KT CAVOK 34/22 A2982

Decode

TAF

Not found

Destination Runways

ID Width Length Bearing (true) Bearing (mag) Surface Threshold Offset Overrun Length
14 115 ft / 35 m 6,302 ft / 1,921 m 137.94° 144.71° Asphalt 0 ft / 0 m 0 ft / 0 m
32 115 ft / 35 m 6,302 ft / 1,921 m 317.94° 324.71° Asphalt 0 ft / 0 m 0 ft / 0 m

Popular Alternatives